Time;durP1;ratioP1;P1;durP2;ratioP2;P2;SDS_P1;SDS_P2;PMS_P1;PMS_P2;Temp;Humidity;BMP_temperature;BMP_pressure;BME280_temperature;BME280_humidity;BME280_pressure;Samples;Min_cycle;Max_cycle;Signal;HPM_P1;HPM_P2
2023/06/19 00:02:01;;;;;;;10.65;6.68;;;21.80;91.10;;;;;;5135957;27;20091;-64
2023/06/19 00:04:27;;;;;;;9.10;6.18;;;21.90;90.90;;;;;;5118138;27;20045;-63
2023/06/19 00:06:53;;;;;;;6.57;5.97;;;21.90;90.80;;;;;;5103749;27;20080;-65
2023/06/19 00:09:19;;;;;;;9.55;5.78;;;21.90;90.60;;;;;;5126220;27;20499;-63
2023/06/19 00:11:44;;;;;;;7.22;6.18;;;21.90;90.50;;;;;;5121288;27;20070;-64
2023/06/19 00:14:10;;;;;;;8.05;6.60;;;21.90;90.10;;;;;;5117608;27;20043;-64
2023/06/19 00:16:36;;;;;;;6.72;6.03;;;22.00;89.80;;;;;;5117336;27;20047;-65
2023/06/19 00:19:03;;;;;;;9.48;6.65;;;22.00;89.60;;;;;;5125620;27;20371;-63
2023/06/19 00:21:29;;;;;;;9.48;6.10;;;22.00;89.30;;;;;;5119109;27;20043;-66
2023/06/19 00:23:55;;;;;;;6.22;5.63;;;22.10;88.60;;;;;;5114333;27;20039;-64
2023/06/19 00:26:25;;;;;;;7.32;6.07;;;22.10;88.80;;;;;;5115229;27;20050;-65
2023/06/19 00:28:53;;;;;;;7.28;6.38;;;22.10;87.90;;;;;;5121685;27;20149;-64
2023/06/19 00:31:19;;;;;;;7.45;6.63;;;22.20;87.60;;;;;;5127815;27;20385;-64
2023/06/19 00:33:47;;;;;;;8.23;6.47;;;22.20;88.00;;;;;;5114801;27;20043;-65
2023/06/19 00:36:15;;;;;;;9.25;6.50;;;22.20;87.80;;;;;;5115565;27;20058;-64
2023/06/19 00:38:41;;;;;;;6.70;6.00;;;22.20;87.20;;;;;;5114526;27;20054;-64
2023/06/19 00:41:07;;;;;;;6.72;6.00;;;22.20;87.00;;;;;;5116788;27;20069;-64
2023/06/19 00:43:33;;;;;;;7.93;6.00;;;22.20;86.80;;;;;;5130187;27;20034;-65
2023/06/19 00:46:00;;;;;;;7.32;6.57;;;22.30;86.80;;;;;;5129197;27;20034;-65
2023/06/19 00:48:31;;;;;;;7.43;6.50;;;22.20;86.80;;;;;;5114912;27;20079;-65
2023/06/19 00:50:57;;;;;;;6.85;6.15;;;22.20;86.90;;;;;;5117707;27;20397;-64
2023/06/19 00:53:24;;;;;;;7.30;6.25;;;22.20;87.00;;;;;;5114692;27;20453;-65
2023/06/19 00:55:51;;;;;;;7.28;6.45;;;22.20;86.90;;;;;;5114239;27;20046;-64
2023/06/19 00:58:21;;;;;;;7.70;6.05;;;22.20;86.80;;;;;;5114950;27;20064;-65
2023/06/19 01:00:47;;;;;;;7.30;6.38;;;22.20;86.90;;;;;;5117720;27;20031;-65
2023/06/19 01:03:14;;;;;;;7.13;6.25;;;22.20;87.10;;;;;;5121584;27;20039;-65
2023/06/19 01:05:40;;;;;;;8.82;6.75;;;22.20;87.00;;;;;;5132646;27;20455;-66
2023/06/19 01:08:24;;;;;;;7.85;6.70;;;22.20;86.80;;;;;;5096855;27;20142;-65
2023/06/19 01:11:01;;;;;;;7.13;6.15;;;22.20;86.80;;;;;;5131228;27;20053;-64
2023/06/19 01:13:43;;;;;;;8.00;6.55;;;22.20;87.50;;;;;;5122671;27;20062;-64
2023/06/19 01:16:10;;;;;;;8.30;6.70;;;22.10;86.50;;;;;;5115083;27;20612;-66
2023/06/19 01:18:36;;;;;;;6.85;6.15;;;22.10;86.80;;;;;;5119605;27;20047;-64
2023/06/19 01:21:16;;;;;;;7.40;6.30;;;22.20;86.80;;;;;;5121843;27;20039;-64
2023/06/19 01:23:42;;;;;;;6.90;6.10;;;22.10;86.90;;;;;;5125766;27;20371;-64
2023/06/19 01:26:08;;;;;;;6.53;5.82;;;22.10;86.90;;;;;;5114669;27;20044;-65
2023/06/19 01:28:42;;;;;;;8.75;6.47;;;22.10;87.10;;;;;;5114248;27;20036;-64
2023/06/19 01:31:19;;;;;;;7.28;6.57;;;22.10;87.40;;;;;;5121658;27;20532;-64
2023/06/19 01:33:46;;;;;;;6.70;6.03;;;22.10;87.40;;;;;;5137703;27;20046;-64
2023/06/19 01:36:14;;;;;;;7.00;6.30;;;22.10;87.60;;;;;;5118836;27;20041;-64
2023/06/19 01:38:43;;;;;;;6.88;6.22;;;22.00;87.60;;;;;;5120743;27;20047;-66
2023/06/19 01:41:10;;;;;;;8.00;6.15;;;22.00;87.90;;;;;;5114780;27;20035;-65
2023/06/19 01:43:37;;;;;;;7.80;6.57;;;22.00;88.00;;;;;;5118914;27;20031;-65
2023/06/19 01:46:02;;;;;;;6.60;5.93;;;22.00;88.10;;;;;;5113331;27;20091;-65
2023/06/19 01:48:29;;;;;;;8.05;6.75;;;22.00;88.40;;;;;;5114987;27;20047;-64
2023/06/19 01:50:55;;;;;;;8.18;6.85;;;21.90;88.70;;;;;;5097461;27;20064;-64
2023/06/19 01:53:20;;;;;;;6.95;6.25;;;21.90;88.80;;;;;;5121398;27;20050;-64
2023/06/19 01:55:46;;;;;;;8.70;7.00;;;21.90;88.90;;;;;;5122737;27;20495;-65
2023/06/19 01:58:12;;;;;;;8.35;6.57;;;21.90;88.90;;;;;;5132095;27;20481;-63
2023/06/19 02:00:37;;;;;;;7.10;6.43;;;21.90;89.00;;;;;;5131767;27;20130;-64
2023/06/19 02:03:04;;;;;;;8.60;6.53;;;21.90;89.20;;;;;;5131647;27;20038;-66
2023/06/19 02:05:34;;;;;;;7.30;6.40;;;21.90;89.40;;;;;;5116796;27;20081;-65
2023/06/19 02:07:59;;;;;;;8.27;6.70;;;21.90;89.90;;;;;;5131135;27;20042;-64
2023/06/19 02:10:25;;;;;;;6.78;6.13;;;21.80;89.90;;;;;;5132484;27;20046;-65
2023/06/19 02:12:51;;;;;;;7.20;6.55;;;21.80;90.00;;;;;;5131555;27;20038;-65
2023/06/19 02:15:16;;;;;;;10.18;6.75;;;21.70;90.20;;;;;;5124914;27;20054;-63
2023/06/19 02:17:42;;;;;;;8.18;6.40;;;21.70;90.30;;;;;;5151275;27;20039;-66
2023/06/19 02:20:11;;;;;;;7.57;6.88;;;21.70;90.40;;;;;;5113579;27;20053;-66
2023/06/19 02:22:38;;;;;;;8.52;6.47;;;21.70;90.40;;;;;;5130888;27;20039;-65
2023/06/19 02:25:04;;;;;;;7.32;6.40;;;21.70;90.60;;;;;;5126535;27;20471;-65
2023/06/19 02:27:30;;;;;;;7.07;6.38;;;21.60;90.90;;;;;;5121867;27;20072;-64
2023/06/19 02:29:55;;;;;;;12.25;6.85;;;21.60;91.10;;;;;;5131915;27;20047;-64
2023/06/19 02:32:21;;;;;;;6.85;6.15;;;21.60;91.30;;;;;;5132750;27;20080;-64
2023/06/19 02:34:47;;;;;;;7.32;6.40;;;21.50;91.50;;;;;;5120350;27;20031;-64
2023/06/19 02:37:12;;;;;;;7.22;6.50;;;21.50;91.80;;;;;;5124285;27;20045;-64
2023/06/19 02:39:38;;;;;;;7.15;6.32;;;21.40;91.90;;;;;;5121610;28;20058;-65
2023/06/19 02:42:04;;;;;;;7.88;6.38;;;21.50;92.10;;;;;;5127146;27;20034;-64
2023/06/19 02:44:30;;;;;;;7.05;6.40;;;21.40;92.50;;;;;;5122481;27;20039;-63
2023/06/19 02:46:56;;;;;;;8.25;6.47;;;21.40;92.50;;;;;;5133289;27;20035;-65
2023/06/19 02:49:21;;;;;;;7.22;6.50;;;21.30;92.60;;;;;;5134036;27;20064;-65
2023/06/19 02:51:47;;;;;;;7.65;6.45;;;21.30;92.60;;;;;;5152540;27;20039;-65
2023/06/19 02:54:12;;;;;;;7.00;6.30;;;21.40;92.90;;;;;;5118325;27;20482;-64
2023/06/19 02:56:38;;;;;;;6.25;5.65;;;21.30;92.90;;;;;;5140976;27;20104;-65
2023/06/19 02:59:04;;;;;;;8.15;6.60;;;21.30;93.10;;;;;;5117759;27;20438;-63
2023/06/19 03:01:30;;;;;;;7.50;6.28;;;21.30;93.30;;;;;;5125349;27;20088;-64
2023/06/19 03:03:55;;;;;;;7.78;6.05;;;21.30;93.60;;;;;;5136106;27;20068;-65
2023/06/19 03:06:21;;;;;;;6.78;6.10;;;21.20;93.80;;;;;;5108333;27;20061;-65
2023/06/19 03:08:47;;;;;;;7.78;5.43;;;21.20;93.90;;;;;;5133322;27;20046;-65
2023/06/19 03:11:13;;;;;;;6.50;5.15;;;21.20;94.20;;;;;;5121614;27;20066;-64
2023/06/19 03:13:52;;;;;;;7.70;4.57;;;21.20;94.60;;;;;;5136518;27;20039;-64
2023/06/19 03:16:18;;;;;;;6.80;4.60;;;21.20;95.30;;;;;;5122517;27;20045;-65
2023/06/19 03:18:44;;;;;;;4.72;4.32;;;21.20;95.10;;;;;;5129143;27;20427;-64
2023/06/19 03:21:14;;;;;;;5.65;3.90;;;21.20;95.30;;;;;;5105775;27;20050;-65
2023/06/19 03:23:43;;;;;;;6.45;3.53;;;21.20;95.70;;;;;;5136259;27;20039;-63
2023/06/19 03:26:10;;;;;;;6.90;3.47;;;21.10;96.00;;;;;;5135597;27;20034;-64
2023/06/19 03:28:36;;;;;;;6.72;3.70;;;21.10;96.40;;;;;;5114597;27;20046;-65
2023/06/19 03:31:02;;;;;;;5.72;3.45;;;21.00;96.50;;;;;;5122241;27;20498;-63
2023/06/19 03:33:28;;;;;;;4.07;3.38;;;21.00;96.70;;;;;;5155005;27;20049;-64
2023/06/19 03:35:54;;;;;;;4.50;3.53;;;21.00;96.80;;;;;;5127056;27;20473;-64
2023/06/19 03:38:19;;;;;;;4.38;3.58;;;20.90;97.20;;;;;;5133216;27;20538;-66
2023/06/19 03:40:45;;;;;;;4.97;3.70;;;20.90;97.70;;;;;;5119370;27;20446;-65
2023/06/19 03:43:11;;;;;;;4.20;3.45;;;20.80;97.90;;;;;;5115957;27;20118;-65
2023/06/19 03:45:37;;;;;;;5.82;3.90;;;20.80;98.20;;;;;;5116586;27;20473;-65
2023/06/19 03:48:03;;;;;;;7.50;4.05;;;20.70;98.30;;;;;;5098973;27;20080;-64
2023/06/19 03:50:28;;;;;;;4.78;3.83;;;20.70;98.50;;;;;;5117804;27;20035;-64
2023/06/19 03:52:54;;;;;;;4.38;3.97;;;20.60;98.80;;;;;;5135794;27;20092;-65
2023/06/19 03:55:20;;;;;;;4.90;3.92;;;20.60;98.80;;;;;;5136358;27;20049;-64
2023/06/19 03:57:45;;;;;;;6.72;3.50;;;20.50;99.10;;;;;;5118271;27;20054;-64
2023/06/19 04:00:12;;;;;;;5.68;3.65;;;20.50;99.20;;;;;;5117855;27;20555;-64
2023/06/19 04:02:39;;;;;;;4.30;3.15;;;20.50;99.40;;;;;;5133218;27;20163;-65
2023/06/19 04:05:06;;;;;;;3.83;3.38;;;20.40;99.60;;;;;;5135972;27;20495;-64
2023/06/19 04:07:32;;;;;;;3.75;3.13;;;20.40;99.90;;;;;;5135879;27;20069;-65
2023/06/19 04:09:58;;;;;;;3.55;3.25;;;20.40;99.90;;;;;;5133417;27;20077;-64
2023/06/19 04:12:24;;;;;;;4.72;3.25;;;20.30;99.90;;;;;;5118148;27;20043;-64
2023/06/19 04:14:50;;;;;;;4.82;3.30;;;20.30;99.90;;;;;;5115489;27;20486;-65
2023/06/19 04:17:15;;;;;;;3.55;3.25;;;20.30;99.90;;;;;;5115522;27;20046;-64
2023/06/19 04:19:41;;;;;;;3.78;3.10;;;20.30;99.90;;;;;;5115067;27;20035;-65
2023/06/19 04:22:07;;;;;;;3.50;3.20;;;20.20;99.90;;;;;;5117037;27;20119;-65
2023/06/19 04:24:33;;;;;;;3.92;3.53;;;20.20;99.90;;;;;;5117040;27;20035;-65
2023/06/19 04:26:59;;;;;;;3.60;3.30;;;20.20;99.90;;;;;;5115415;27;20138;-64
2023/06/19 04:29:24;;;;;;;4.00;3.30;;;20.10;99.90;;;;;;5133515;27;20038;-66
2023/06/19 04:31:50;;;;;;;4.05;3.60;;;20.10;99.90;;;;;;5118011;27;20114;-64
2023/06/19 04:34:17;;;;;;;4.00;3.60;;;20.10;99.90;;;;;;5124800;27;20034;-64
2023/06/19 04:36:43;;;;;;;3.47;3.17;;;20.20;99.90;;;;;;5135065;27;20122;-63
2023/06/19 04:39:09;;;;;;;4.78;3.15;;;20.20;99.90;;;;;;5143058;27;20092;-64
2023/06/19 04:41:38;;;;;;;3.72;3.13;;;20.20;99.90;;;;;;5123009;27;20043;-65
2023/06/19 04:44:08;;;;;;;4.35;2.97;;;20.20;99.90;;;;;;5120722;27;20505;-64
2023/06/19 04:46:33;;;;;;;3.55;3.20;;;20.30;99.90;;;;;;5121475;27;20035;-65
2023/06/19 04:48:59;;;;;;;4.88;3.13;;;20.20;99.90;;;;;;5116990;27;20455;-65
2023/06/19 04:51:26;;;;;;;3.45;3.13;;;20.30;99.90;;;;;;5116964;27;20043;-64
2023/06/19 04:53:52;;;;;;;3.60;3.30;;;20.30;99.90;;;;;;5121334;27;20054;-64
2023/06/19 04:56:17;;;;;;;3.97;3.33;;;20.30;99.90;;;;;;5121055;27;20118;-65
2023/06/19 04:58:47;;;;;;;3.95;3.65;;;20.40;99.90;;;;;;5118598;27;20569;-64
2023/06/19 05:01:13;;;;;;;4.97;3.30;;;20.40;99.90;;;;;;5122727;27;20483;-64
2023/06/19 05:03:39;;;;;;;4.22;3.60;;;20.40;99.90;;;;;;5118157;27;20027;-65
2023/06/19 05:06:05;;;;;;;3.70;3.40;;;20.40;99.90;;;;;;5130560;27;20054;-64
2023/06/19 05:08:31;;;;;;;4.97;3.58;;;20.50;99.90;;;;;;5113977;27;20043;-65
2023/06/19 05:10:57;;;;;;;4.25;3.85;;;20.50;99.90;;;;;;5122157;27;20043;-65
2023/06/19 05:13:23;;;;;;;3.88;3.40;;;20.50;99.90;;;;;;5130884;27;20034;-65
2023/06/19 05:15:50;;;;;;;5.75;3.35;;;20.50;99.90;;;;;;5136981;27;20047;-64
2023/06/19 05:18:16;;;;;;;5.07;3.47;;;20.40;99.90;;;;;;5123915;27;20039;-64
2023/06/19 05:20:42;;;;;;;3.85;3.45;;;20.40;99.90;;;;;;5130814;27;20150;-65
2023/06/19 05:23:07;;;;;;;3.70;3.40;;;20.40;99.90;;;;;;5131897;27;20058;-65
2023/06/19 05:25:33;;;;;;;5.25;3.80;;;20.30;99.90;;;;;;5133585;27;20041;-64
2023/06/19 05:27:59;;;;;;;5.07;3.60;;;20.30;99.90;;;;;;5115866;27;20062;-64
2023/06/19 05:30:24;;;;;;;4.50;3.67;;;20.30;99.90;;;;;;5113328;27;20058;-65
2023/06/19 05:32:50;;;;;;;3.90;3.60;;;20.30;99.90;;;;;;5132457;27;20073;-65
2023/06/19 05:35:16;;;;;;;3.70;3.40;;;20.30;99.90;;;;;;5137449;27;20370;-64
2023/06/19 05:37:43;;;;;;;4.18;3.78;;;20.30;99.90;;;;;;5113740;27;20039;-64
2023/06/19 05:40:10;;;;;;;6.22;4.32;;;20.30;99.90;;;;;;5129207;27;20122;-64
2023/06/19 05:42:36;;;;;;;6.38;3.88;;;20.40;99.90;;;;;;5128706;27;20058;-64
2023/06/19 05:45:03;;;;;;;4.38;3.90;;;20.50;99.90;;;;;;5121174;27;20037;-64
2023/06/19 05:47:30;;;;;;;4.82;3.90;;;20.60;99.90;;;;;;5117899;27;20485;-65
2023/06/19 05:49:59;;;;;;;6.00;4.15;;;20.60;99.90;;;;;;5126907;27;20035;-65
2023/06/19 05:52:25;;;;;;;5.43;4.50;;;20.50;99.90;;;;;;5133362;27;20442;-65
2023/06/19 05:54:53;;;;;;;6.13;4.85;;;20.50;99.90;;;;;;5116330;27;20103;-64
2023/06/19 05:57:20;;;;;;;6.63;4.47;;;20.50;99.90;;;;;;5133506;27;20034;-63
2023/06/19 05:59:50;;;;;;;16.10;4.82;;;20.50;99.90;;;;;;5133407;27;20051;-65
2023/06/19 06:02:17;;;;;;;7.20;5.50;;;20.40;99.90;;;;;;5116195;27;20039;-64
2023/06/19 06:04:43;;;;;;;6.57;5.97;;;20.40;99.90;;;;;;5131519;27;20078;-65
2023/06/19 06:07:09;;;;;;;7.07;6.38;;;20.30;99.90;;;;;;5131633;27;20103;-65
2023/06/19 06:09:34;;;;;;;7.88;7.18;;;20.40;99.90;;;;;;5115502;27;20124;-64
2023/06/19 06:12:00;;;;;;;9.85;8.85;;;20.30;99.90;;;;;;5114771;27;20047;-64
2023/06/19 06:14:27;;;;;;;9.68;8.10;;;20.30;99.90;;;;;;5095802;27;20058;-64
2023/06/19 06:16:53;;;;;;;10.65;9.55;;;20.40;99.90;;;;;;5113127;27;20512;-65
2023/06/19 06:19:20;;;;;;;13.60;9.85;;;20.50;99.90;;;;;;5134980;27;20063;-65
2023/06/19 06:21:45;;;;;;;10.77;9.68;;;20.50;99.90;;;;;;5125713;27;20047;-64
2023/06/19 06:24:11;;;;;;;14.60;11.23;;;20.60;99.90;;;;;;5129864;27;20035;-66
2023/06/19 06:26:37;;;;;;;13.23;10.73;;;20.60;99.90;;;;;;5130443;27;20070;-65
2023/06/19 06:29:03;;;;;;;11.05;9.95;;;20.60;99.90;;;;;;5133464;27;20489;-65
2023/06/19 06:31:28;;;;;;;10.77;9.77;;;20.50;99.90;;;;;;5133828;27;20039;-64
2023/06/19 06:33:54;;;;;;;10.57;9.35;;;20.50;99.90;;;;;;5133009;27;20046;-65
2023/06/19 06:36:20;;;;;;;10.60;9.50;;;20.50;99.90;;;;;;5116963;28;20031;-66
2023/06/19 06:38:45;;;;;;;12.98;9.63;;;20.40;99.90;;;;;;5116031;27;20035;-65
2023/06/19 06:41:11;;;;;;;9.85;8.77;;;20.30;99.90;;;;;;5112515;27;20086;-64
2023/06/19 06:43:38;;;;;;;10.80;8.55;;;20.30;99.90;;;;;;5131095;27;20501;-65
2023/06/19 06:46:04;;;;;;;9.10;7.60;;;20.20;99.90;;;;;;5133157;27;20042;-65
2023/06/19 06:48:30;;;;;;;8.85;7.25;;;20.20;99.90;;;;;;5121987;27;20454;-65
2023/06/19 06:51:01;;;;;;;8.10;6.82;;;20.20;99.90;;;;;;5115151;27;20039;-65
2023/06/19 06:53:33;;;;;;;7.47;6.78;;;20.20;99.90;;;;;;5113265;28;20067;-64
2023/06/19 06:55:59;;;;;;;10.38;7.18;;;20.20;99.90;;;;;;5117255;27;20039;-64
2023/06/19 06:58:26;;;;;;;7.63;6.93;;;20.10;99.90;;;;;;5112265;28;20050;-64
2023/06/19 07:00:52;;;;;;;8.65;6.60;;;20.10;99.90;;;;;;5133542;27;20043;-64
2023/06/19 07:03:20;;;;;;;6.97;5.50;;;20.10;99.90;;;;;;5115893;27;20038;-65
2023/06/19 07:05:48;;;;;;;7.72;4.95;;;20.10;99.90;;;;;;5112140;27;20088;-65
2023/06/19 07:08:14;;;;;;;8.13;5.00;;;20.10;99.90;;;;;;5130411;27;20035;-64
2023/06/19 07:10:39;;;;;;;4.82;4.03;;;20.10;99.90;;;;;;5113030;27;20554;-65
2023/06/19 07:13:05;;;;;;;4.00;3.65;;;20.10;99.90;;;;;;5130322;27;20051;-65
2023/06/19 07:15:31;;;;;;;4.72;3.60;;;20.20;99.90;;;;;;5131052;27;20041;-64
2023/06/19 07:17:57;;;;;;;6.30;4.00;;;20.20;99.90;;;;;;5113765;27;20478;-66
2023/06/19 07:20:22;;;;;;;7.10;4.40;;;20.20;99.90;;;;;;5110758;27;20035;-66
2023/06/19 07:22:51;;;;;;;7.35;4.72;;;20.10;99.90;;;;;;5116251;27;20054;-65
2023/06/19 07:25:17;;;;;;;5.65;5.15;;;20.10;99.90;;;;;;5112442;27;20031;-65
2023/06/19 07:27:43;;;;;;;7.57;5.30;;;20.10;99.90;;;;;;5112029;27;20053;-65
2023/06/19 07:30:10;;;;;;;6.40;5.40;;;20.10;99.90;;;;;;5112089;27;20035;-65
2023/06/19 07:32:36;;;;;;;5.60;5.00;;;20.00;99.90;;;;;;5119182;27;20047;-66
2023/06/19 07:35:02;;;;;;;5.97;5.38;;;20.00;99.90;;;;;;5120695;27;20088;-65
2023/06/19 07:37:28;;;;;;;6.28;5.47;;;20.10;99.90;;;;;;5115788;27;20073;-65
2023/06/19 07:39:54;;;;;;;5.18;4.43;;;20.10;99.90;;;;;;5116232;27;20039;-66
2023/06/19 07:42:20;;;;;;;7.50;4.32;;;20.20;99.90;;;;;;5117927;27;20034;-65
2023/06/19 07:44:46;;;;;;;4.45;4.05;;;20.30;99.90;;;;;;5118722;27;20103;-64
2023/06/19 07:47:13;;;;;;;5.03;4.22;;;20.30;99.90;;;;;;5115634;27;20035;-64
2023/06/19 07:49:39;;;;;;;5.85;4.88;;;20.30;99.90;;;;;;5115842;27;20078;-65
2023/06/19 07:52:05;;;;;;;5.60;4.47;;;20.30;99.90;;;;;;5115015;27;20078;-64
2023/06/19 07:54:31;;;;;;;5.72;4.97;;;20.30;99.90;;;;;;5152048;27;20041;-64
2023/06/19 07:56:56;;;;;;;6.55;5.18;;;20.30;99.90;;;;;;5125951;27;20115;-64
2023/06/19 07:59:22;;;;;;;6.63;6.03;;;20.40;99.90;;;;;;5115340;27;20035;-65
2023/06/19 08:01:48;;;;;;;6.97;6.10;;;20.40;99.90;;;;;;5097921;27;20131;-65
2023/06/19 08:04:14;;;;;;;9.23;6.53;;;20.40;99.90;;;;;;5134734;27;20393;-64
2023/06/19 08:06:40;;;;;;;7.80;7.07;;;20.50;99.90;;;;;;5129177;27;20030;-64
2023/06/19 08:09:05;;;;;;;8.70;7.88;;;20.60;99.90;;;;;;5135334;27;20405;-65
2023/06/19 08:11:31;;;;;;;8.10;7.40;;;20.60;99.90;;;;;;5136091;27;20042;-65
2023/06/19 08:13:57;;;;;;;8.07;7.38;;;20.60;99.90;;;;;;5135222;27;20050;-66
2023/06/19 08:16:25;;;;;;;8.48;7.57;;;20.70;99.90;;;;;;5122849;27;20041;-64
2023/06/19 08:18:51;;;;;;;8.00;7.22;;;20.70;99.90;;;;;;5135658;27;20129;-64
2023/06/19 08:21:17;;;;;;;8.10;7.40;;;20.80;99.90;;;;;;5135606;27;20121;-64
2023/06/19 08:23:43;;;;;;;9.02;8.32;;;20.80;99.90;;;;;;5135594;27;20098;-65
2023/06/19 08:26:10;;;;;;;8.48;7.65;;;20.80;99.90;;;;;;5135638;27;20050;-64
2023/06/19 08:28:37;;;;;;;7.40;6.43;;;20.80;99.90;;;;;;5135554;27;20041;-64
2023/06/19 08:31:02;;;;;;;7.63;5.80;;;20.80;99.90;;;;;;5128039;27;20035;-65
2023/06/19 08:33:28;;;;;;;6.18;5.20;;;20.80;99.90;;;;;;5126977;27;20095;-64
2023/06/19 08:35:53;;;;;;;7.40;6.05;;;20.80;99.90;;;;;;5135352;27;20041;-64
2023/06/19 08:38:19;;;;;;;7.40;6.05;;;20.70;99.90;;;;;;5131458;27;20047;-64
2023/06/19 08:40:45;;;;;;;10.77;6.10;;;20.70;99.90;;;;;;5125850;27;20050;-65
2023/06/19 08:43:11;;;;;;;10.15;6.30;;;20.60;99.90;;;;;;5134110;27;20042;-64
2023/06/19 08:45:37;;;;;;;7.13;5.60;;;20.70;99.90;;;;;;5120434;27;20528;-65
2023/06/19 08:48:03;;;;;;;6.53;5.85;;;20.70;99.90;;;;;;5096868;27;20066;-65
2023/06/19 08:50:33;;;;;;;6.70;6.00;;;20.80;99.90;;;;;;5115182;27;20031;-66
2023/06/19 08:52:59;;;;;;;5.93;5.32;;;20.80;99.90;;;;;;5119386;27;20051;-65
2023/06/19 08:55:25;;;;;;;8.30;5.75;;;20.90;99.90;;;;;;5153375;27;20046;-64
2023/06/19 08:57:52;;;;;;;5.47;4.90;;;21.10;99.90;;;;;;5122064;27;20076;-65
2023/06/19 09:00:25;;;;;;;9.40;5.70;;;21.20;99.90;;;;;;5113912;27;20035;-65
2023/06/19 09:02:52;;;;;;;6.75;5.65;;;21.30;99.90;;;;;;5134614;27;20043;-64
2023/06/19 09:05:19;;;;;;;9.68;6.15;;;21.20;99.90;;;;;;5134099;27;20489;-65
2023/06/19 09:08:03;;;;;;;7.40;5.97;;;21.20;99.90;;;;;;5117321;27;20481;-65
2023/06/19 09:10:29;;;;;;;10.15;6.22;;;21.20;99.90;;;;;;5117835;27;20050;-65
2023/06/19 09:13:03;;;;;;;8.38;7.47;;;21.10;99.90;;;;;;5123889;27;20057;-65
2023/06/19 09:15:34;;;;;;;12.23;8.48;;;21.10;99.90;;;;;;5118244;27;20039;-64
2023/06/19 09:18:05;;;;;;;11.25;8.32;;;21.10;99.90;;;;;;5129304;27;20493;-64
2023/06/19 09:20:32;;;;;;;9.52;8.57;;;21.10;99.90;;;;;;5113799;27;20055;-64
2023/06/19 09:23:00;;;;;;;11.05;9.15;;;21.20;99.90;;;;;;5117073;27;20040;-64
2023/06/19 09:25:29;;;;;;;11.15;9.35;;;21.10;99.90;;;;;;5130055;27;20117;-65
2023/06/19 09:27:55;;;;;;;12.68;10.93;;;21.10;99.90;;;;;;5129331;27;20061;-65
2023/06/19 09:30:21;;;;;;;12.32;10.60;;;21.10;99.90;;;;;;5118342;27;20046;-65
2023/06/19 09:32:47;;;;;;;11.93;9.98;;;21.00;99.90;;;;;;5113902;27;20417;-64
2023/06/19 09:35:12;;;;;;;15.90;11.43;;;21.10;99.90;;;;;;5135301;27;20490;-65
2023/06/19 09:37:42;;;;;;;14.23;11.18;;;21.10;99.90;;;;;;5113933;27;20664;-65
2023/06/19 09:40:10;;;;;;;10.88;9.77;;;21.00;99.90;;;;;;5114104;27;20482;-65
2023/06/19 09:42:38;;;;;;;16.08;11.30;;;20.90;99.90;;;;;;5129693;27;20121;-64
2023/06/19 09:45:18;;;;;;;13.65;10.65;;;20.70;99.90;;;;;;5122779;27;20133;-65
2023/06/19 09:47:46;;;;;;;13.15;10.35;;;20.70;99.90;;;;;;5125769;27;20050;-64
2023/06/19 09:50:13;;;;;;;12.13;10.10;;;20.80;99.90;;;;;;5122560;27;20039;-64
2023/06/19 09:52:43;;;;;;;12.00;10.63;;;20.80;99.90;;;;;;5133969;27;20054;-64
2023/06/19 09:55:13;;;;;;;11.50;8.50;;;21.00;99.90;;;;;;5121821;27;20108;-64
2023/06/19 09:57:40;;;;;;;9.30;7.70;;;21.00;99.90;;;;;;5114253;27;20500;-64
2023/06/19 10:00:15;;;;;;;9.07;8.18;;;20.90;99.90;;;;;;5113191;27;20050;-66
2023/06/19 10:02:43;;;;;;;12.02;9.13;;;20.90;99.90;;;;;;5113082;27;20035;-65
2023/06/19 10:05:11;;;;;;;11.48;8.63;;;20.90;99.90;;;;;;5126811;27;20042;-65
2023/06/19 10:07:37;;;;;;;10.43;9.38;;;20.80;99.90;;;;;;5118561;27;20054;-66
2023/06/19 10:10:08;;;;;;;11.45;9.13;;;20.70;99.90;;;;;;5116070;27;21395;-64
2023/06/19 10:12:40;;;;;;;10.05;8.75;;;20.70;99.90;;;;;;5112838;27;20035;-64
2023/06/19 10:15:10;;;;;;;11.85;8.65;;;20.70;99.90;;;;;;5122113;27;20043;-64
2023/06/19 10:17:37;;;;;;;13.50;9.38;;;20.80;99.90;;;;;;5125671;27;20026;-65
2023/06/19 10:20:03;;;;;;;11.65;8.13;;;20.80;99.90;;;;;;5132864;27;20042;-64
2023/06/19 10:22:32;;;;;;;11.38;8.23;;;20.80;99.90;;;;;;5117135;27;20047;-65
2023/06/19 10:24:58;;;;;;;12.30;9.00;;;20.90;99.90;;;;;;5113098;27;20046;-64
2023/06/19 10:27:25;;;;;;;10.55;8.77;;;20.90;99.90;;;;;;5120789;27;20039;-64
2023/06/19 10:29:55;;;;;;;10.63;8.85;;;21.00;99.90;;;;;;5123057;27;20493;-64
2023/06/19 10:32:21;;;;;;;11.85;9.35;;;21.00;99.90;;;;;;5117003;27;20496;-64
2023/06/19 10:34:48;;;;;;;10.02;8.48;;;21.10;99.90;;;;;;5127400;27;20088;-65
2023/06/19 10:37:15;;;;;;;9.75;8.75;;;21.30;99.90;;;;;;5121986;27;20058;-65
2023/06/19 10:39:42;;;;;;;10.45;7.95;;;21.20;99.90;;;;;;5113925;28;20450;-64
2023/06/19 10:42:09;;;;;;;11.52;8.13;;;21.40;99.90;;;;;;5118671;27;20486;-65
2023/06/19 10:44:36;;;;;;;11.40;8.85;;;21.60;99.90;;;;;;5133634;27;20039;-66
2023/06/19 10:47:02;;;;;;;11.55;9.55;;;21.60;99.90;;;;;;5133194;27;20030;-64
2023/06/19 10:49:28;;;;;;;10.40;9.35;;;21.50;99.90;;;;;;5121790;27;20108;-65
2023/06/19 10:51:58;;;;;;;11.77;9.60;;;21.50;99.90;;;;;;5125237;28;20047;-64
2023/06/19 10:54:25;;;;;;;10.05;9.05;;;21.50;99.90;;;;;;5113305;27;20066;-64
2023/06/19 10:56:51;;;;;;;11.43;9.32;;;21.40;99.90;;;;;;5131167;27;20036;-65
2023/06/19 10:59:17;;;;;;;12.48;10.38;;;21.30;99.90;;;;;;5139477;27;20088;-65
2023/06/19 11:01:46;;;;;;;11.82;10.00;;;21.20;99.90;;;;;;5130967;27;20047;-66
2023/06/19 11:04:13;;;;;;;10.25;8.80;;;21.20;99.90;;;;;;5112830;27;20070;-65
2023/06/19 11:06:40;;;;;;;11.60;10.40;;;21.20;99.90;;;;;;5113253;27;20070;-65
2023/06/19 11:09:08;;;;;;;12.18;10.00;;;21.40;99.90;;;;;;5119281;27;20392;-64
2023/06/19 11:11:38;;;;;;;12.52;10.07;;;21.60;99.90;;;;;;5125142;27;20046;-65
2023/06/19 11:14:04;;;;;;;12.48;9.07;;;21.80;99.90;;;;;;5120872;27;20114;-65
2023/06/19 11:16:30;;;;;;;10.63;9.50;;;22.00;99.90;;;;;;5120137;27;20049;-64
2023/06/19 11:18:59;;;;;;;12.45;10.15;;;22.20;99.90;;;;;;5128496;27;20046;-64
2023/06/19 11:21:38;;;;;;;10.00;8.95;;;22.10;99.90;;;;;;5118722;27;20516;-65
2023/06/19 11:24:12;;;;;;;10.15;8.57;;;22.10;99.90;;;;;;5121994;27;20066;-65
2023/06/19 11:26:43;;;;;;;13.77;9.93;;;22.10;99.90;;;;;;5122483;27;20039;-65
2023/06/19 11:29:16;;;;;;;11.60;10.43;;;22.00;99.90;;;;;;5126237;27;20100;-64
2023/06/19 11:31:42;;;;;;;13.23;9.98;;;21.90;99.90;;;;;;5103249;27;20066;-64
2023/06/19 11:34:07;;;;;;;12.80;9.65;;;21.80;99.90;;;;;;5129696;27;20389;-65
2023/06/19 11:36:37;;;;;;;12.93;9.40;;;21.80;99.90;;;;;;5135962;27;20042;-63
2023/06/19 11:39:04;;;;;;;11.93;10.25;;;21.80;99.90;;;;;;5112872;27;20043;-64
2023/06/19 11:41:30;;;;;;;10.20;8.95;;;21.70;99.90;;;;;;5123845;27;20087;-64
2023/06/19 11:44:04;;;;;;;11.27;8.85;;;21.70;99.90;;;;;;5119551;27;20035;-64
2023/06/19 11:46:31;;;;;;;10.85;9.73;;;21.70;99.90;;;;;;5098330;27;20051;-65
2023/06/19 11:49:18;;;;;;;9.90;8.75;;;21.80;99.90;;;;;;5115314;27;20035;-64
2023/06/19 11:51:45;;;;;;;10.60;9.27;;;21.80;99.90;;;;;;5117079;27;20393;-64
2023/06/19 11:54:12;;;;;;;10.20;8.82;;;21.80;99.90;;;;;;5114316;27;20150;-65
2023/06/19 11:56:39;;;;;;;10.95;9.75;;;22.00;99.90;;;;;;5114814;27;20047;-64
2023/06/19 11:59:05;;;;;;;11.52;9.80;;;22.20;99.90;;;;;;5132701;27;20433;-64
2023/06/19 12:01:32;;;;;;;12.10;10.60;;;22.50;99.90;;;;;;5153636;27;20493;-65
2023/06/19 12:03:58;;;;;;;13.15;10.55;;;22.70;99.90;;;;;;5117132;27;20108;-64
2023/06/19 12:06:24;;;;;;;10.35;9.07;;;23.00;99.90;;;;;;5136425;27;20035;-64
2023/06/19 12:08:50;;;;;;;11.73;9.13;;;23.10;99.90;;;;;;5111627;27;20110;-64
2023/06/19 12:11:16;;;;;;;13.25;10.00;;;23.20;99.90;;;;;;5114517;27;20047;-64
2023/06/19 12:13:42;;;;;;;11.15;9.25;;;23.20;99.90;;;;;;5137681;27;20053;-64
2023/06/19 12:16:09;;;;;;;13.07;9.60;;;23.10;99.90;;;;;;5118092;27;20035;-65
2023/06/19 12:18:35;;;;;;;13.82;9.50;;;23.00;99.90;;;;;;5132878;27;20039;-65
2023/06/19 12:21:01;;;;;;;14.00;10.02;;;22.70;99.70;;;;;;5114298;27;20100;-64
2023/06/19 12:23:26;;;;;;;11.85;10.63;;;22.70;99.90;;;;;;5116460;27;20093;-64
2023/06/19 12:25:52;;;;;;;13.32;11.88;;;22.60;99.90;;;;;;5117407;27;20537;-65
2023/06/19 12:28:18;;;;;;;13.68;10.90;;;22.70;99.90;;;;;;5119003;27;20082;-64
2023/06/19 12:30:45;;;;;;;13.50;11.23;;;22.70;99.90;;;;;;5135954;27;20378;-64
2023/06/19 12:33:11;;;;;;;14.55;11.10;;;22.90;99.90;;;;;;5135027;27;20067;-65
2023/06/19 12:35:43;;;;;;;13.07;10.75;;;23.20;99.90;;;;;;5122459;27;20039;-66
2023/06/19 12:38:09;;;;;;;11.52;10.10;;;23.40;99.40;;;;;;5116499;27;20047;-64
2023/06/19 12:40:36;;;;;;;13.35;10.93;;;23.30;99.10;;;;;;5132171;27;20035;-64
2023/06/19 12:43:02;;;;;;;13.82;10.82;;;23.40;99.40;;;;;;5114062;27;20723;-65